sensor_id;sensor_type;location;lat;lon;timestamp;pressure;altitude;pressure_sealevel;temperature;humidity
48555;BME280;34336;48.270;16.716;2023-03-22T00:01:38;109325.25;;;18.16;66.81
48555;BME280;34336;48.270;16.716;2023-03-22T00:04:06;109325.25;;;18.16;67.64
48555;BME280;34336;48.270;16.716;2023-03-22T00:06:33;109325.25;;;18.16;67.36
48555;BME280;34336;48.270;16.716;2023-03-22T00:08:59;109325.25;;;18.16;67.79
48555;BME280;34336;48.270;16.716;2023-03-22T00:11:26;109325.25;;;18.16;68.10
48555;BME280;34336;48.270;16.716;2023-03-22T00:13:53;109325.25;;;18.16;67.88
48555;BME280;34336;48.270;16.716;2023-03-22T00:16:20;109325.25;;;18.16;67.43
48555;BME280;34336;48.270;16.716;2023-03-22T00:18:47;109325.25;;;18.16;67.34
48555;BME280;34336;48.270;16.716;2023-03-22T00:21:14;109325.25;;;18.16;67.16
48555;BME280;34336;48.270;16.716;2023-03-22T00:23:41;109325.25;;;18.16;67.27
48555;BME280;34336;48.270;16.716;2023-03-22T00:26:09;109325.25;;;18.16;67.44
48555;BME280;34336;48.270;16.716;2023-03-22T00:28:37;109325.25;;;18.16;67.61
48555;BME280;34336;48.270;16.716;2023-03-22T00:31:03;109325.25;;;18.16;67.81
48555;BME280;34336;48.270;16.716;2023-03-22T00:33:31;109325.25;;;18.16;67.86
48555;BME280;34336;48.270;16.716;2023-03-22T00:35:59;109325.25;;;18.16;67.37
48555;BME280;34336;48.270;16.716;2023-03-22T00:38:26;109325.25;;;18.16;67.68
48555;BME280;34336;48.270;16.716;2023-03-22T00:41:19;109325.25;;;18.16;67.68
48555;BME280;34336;48.270;16.716;2023-03-22T00:43:46;109325.25;;;18.16;67.40
48555;BME280;34336;48.270;16.716;2023-03-22T00:46:14;109325.25;;;18.16;67.69
48555;BME280;34336;48.270;16.716;2023-03-22T00:48:41;109325.25;;;18.16;67.68
48555;BME280;34336;48.270;16.716;2023-03-22T00:51:09;109325.25;;;18.16;67.70
48555;BME280;34336;48.270;16.716;2023-03-22T00:53:36;109325.25;;;18.16;67.58
48555;BME280;34336;48.270;16.716;2023-03-22T00:56:07;109325.25;;;18.16;66.95
48555;BME280;34336;48.270;16.716;2023-03-22T00:58:41;109325.25;;;18.16;66.58
48555;BME280;34336;48.270;16.716;2023-03-22T01:01:08;109325.25;;;18.16;66.21
48555;BME280;34336;48.270;16.716;2023-03-22T01:03:39;109325.25;;;18.16;65.91
48555;BME280;34336;48.270;16.716;2023-03-22T01:06:06;109325.25;;;18.16;65.23
48555;BME280;34336;48.270;16.716;2023-03-22T01:08:33;109325.25;;;18.16;65.47
48555;BME280;34336;48.270;16.716;2023-03-22T01:11:04;109325.25;;;18.16;65.44
48555;BME280;34336;48.270;16.716;2023-03-22T01:13:31;109325.25;;;18.16;65.64
48555;BME280;34336;48.270;16.716;2023-03-22T01:15:58;109325.25;;;18.16;65.54
48555;BME280;34336;48.270;16.716;2023-03-22T01:18:25;109325.25;;;18.16;65.72
48555;BME280;34336;48.270;16.716;2023-03-22T01:20:51;109325.25;;;18.16;65.63
48555;BME280;34336;48.270;16.716;2023-03-22T01:23:18;109325.25;;;18.16;65.58
48555;BME280;34336;48.270;16.716;2023-03-22T01:25:45;109325.25;;;18.16;64.59
48555;BME280;34336;48.270;16.716;2023-03-22T01:28:12;109325.25;;;18.16;64.98
48555;BME280;34336;48.270;16.716;2023-03-22T01:30:38;109325.25;;;18.16;65.27
48555;BME280;34336;48.270;16.716;2023-03-22T01:33:06;109325.25;;;18.16;65.25
48555;BME280;34336;48.270;16.716;2023-03-22T01:35:34;109325.25;;;18.16;65.28
48555;BME280;34336;48.270;16.716;2023-03-22T01:38:03;109325.25;;;18.16;65.16
48555;BME280;34336;48.270;16.716;2023-03-22T01:40:33;109325.25;;;18.16;64.89
48555;BME280;34336;48.270;16.716;2023-03-22T01:43:00;109325.25;;;18.16;64.94
48555;BME280;34336;48.270;16.716;2023-03-22T01:45:35;109325.25;;;18.16;64.81
48555;BME280;34336;48.270;16.716;2023-03-22T01:48:04;109325.25;;;18.16;64.77
48555;BME280;34336;48.270;16.716;2023-03-22T01:50:35;109325.25;;;18.16;65.06
48555;BME280;34336;48.270;16.716;2023-03-22T01:53:04;109325.25;;;18.16;64.79
48555;BME280;34336;48.270;16.716;2023-03-22T01:55:34;109325.25;;;18.16;64.57
48555;BME280;34336;48.270;16.716;2023-03-22T01:58:08;109325.25;;;18.16;64.66
48555;BME280;34336;48.270;16.716;2023-03-22T02:00:43;109325.25;;;18.16;64.21
48555;BME280;34336;48.270;16.716;2023-03-22T02:06:14;109325.25;;;18.16;64.52
48555;BME280;34336;48.270;16.716;2023-03-22T02:08:41;109325.25;;;18.16;64.39
48555;BME280;34336;48.270;16.716;2023-03-22T02:11:22;109325.25;;;18.16;63.92
48555;BME280;34336;48.270;16.716;2023-03-22T02:17:02;109325.25;;;18.16;64.43
48555;BME280;34336;48.270;16.716;2023-03-22T02:35:32;109325.25;;;18.16;67.06
48555;BME280;34336;48.270;16.716;2023-03-22T02:40:49;109325.25;;;18.16;67.43
48555;BME280;34336;48.270;16.716;2023-03-22T02:43:35;109325.25;;;18.16;67.61
48555;BME280;34336;48.270;16.716;2023-03-22T02:46:27;109325.25;;;18.16;68.21
48555;BME280;34336;48.270;16.716;2023-03-22T02:51:31;109325.25;;;18.16;68.74
48555;BME280;34336;48.270;16.716;2023-03-22T02:54:03;109325.25;;;18.16;68.78
48555;BME280;34336;48.270;16.716;2023-03-22T02:56:34;109325.25;;;18.16;68.86
48555;BME280;34336;48.270;16.716;2023-03-22T02:59:07;109325.25;;;18.16;68.79
48555;BME280;34336;48.270;16.716;2023-03-22T03:01:37;109325.25;;;18.16;68.55
48555;BME280;34336;48.270;16.716;2023-03-22T03:04:06;109325.25;;;18.16;68.68
48555;BME280;34336;48.270;16.716;2023-03-22T03:06:36;109325.25;;;18.16;68.76
48555;BME280;34336;48.270;16.716;2023-03-22T03:09:12;109325.25;;;18.16;68.93
48555;BME280;34336;48.270;16.716;2023-03-22T03:11:47;109325.25;;;18.16;69.52
48555;BME280;34336;48.270;16.716;2023-03-22T03:14:25;109325.25;;;18.16;70.06
48555;BME280;34336;48.270;16.716;2023-03-22T03:17:00;109325.25;;;18.16;70.35
48555;BME280;34336;48.270;16.716;2023-03-22T03:22:23;109325.25;;;18.16;71.00
48555;BME280;34336;48.270;16.716;2023-03-22T03:27:35;109325.25;;;18.16;71.25
48555;BME280;34336;48.270;16.716;2023-03-22T03:30:05;109325.25;;;18.16;70.68
48555;BME280;34336;48.270;16.716;2023-03-22T03:32:43;109325.25;;;18.16;70.17
48555;BME280;34336;48.270;16.716;2023-03-22T03:35:14;109325.25;;;18.16;69.60
48555;BME280;34336;48.270;16.716;2023-03-22T03:37:49;109325.25;;;18.16;69.35
48555;BME280;34336;48.270;16.716;2023-03-22T03:40:24;109325.25;;;18.16;68.87
48555;BME280;34336;48.270;16.716;2023-03-22T03:42:53;109325.25;;;18.16;68.52
48555;BME280;34336;48.270;16.716;2023-03-22T03:45:22;109325.25;;;18.16;68.39
48555;BME280;34336;48.270;16.716;2023-03-22T03:47:50;109325.25;;;18.16;68.39
48555;BME280;34336;48.270;16.716;2023-03-22T03:50:23;109325.25;;;18.16;68.56
48555;BME280;34336;48.270;16.716;2023-03-22T03:52:51;109325.25;;;18.16;68.46
48555;BME280;34336;48.270;16.716;2023-03-22T03:55:18;109325.25;;;18.16;68.52
48555;BME280;34336;48.270;16.716;2023-03-22T03:57:44;109325.25;;;18.16;68.47
48555;BME280;34336;48.270;16.716;2023-03-22T04:00:11;109325.25;;;18.16;68.17
48555;BME280;34336;48.270;16.716;2023-03-22T04:02:50;109325.25;;;18.16;68.11
48555;BME280;34336;48.270;16.716;2023-03-22T04:05:40;109325.25;;;18.16;67.96
48555;BME280;34336;48.270;16.716;2023-03-22T04:08:07;109325.25;;;18.16;68.13
48555;BME280;34336;48.270;16.716;2023-03-22T04:10:34;109325.25;;;18.16;67.44
48555;BME280;34336;48.270;16.716;2023-03-22T04:13:00;109325.25;;;18.16;67.62
48555;BME280;34336;48.270;16.716;2023-03-22T04:15:27;109325.25;;;18.16;67.33
48555;BME280;34336;48.270;16.716;2023-03-22T04:17:57;109325.25;;;18.16;66.92
48555;BME280;34336;48.270;16.716;2023-03-22T04:20:27;109325.25;;;18.16;66.59
48555;BME280;34336;48.270;16.716;2023-03-22T04:22:55;109325.25;;;18.16;66.62
48555;BME280;34336;48.270;16.716;2023-03-22T04:25:23;109325.25;;;18.16;66.73
48555;BME280;34336;48.270;16.716;2023-03-22T04:28:01;109325.25;;;18.16;66.80
48555;BME280;34336;48.270;16.716;2023-03-22T04:30:33;109325.25;;;18.16;66.41
48555;BME280;34336;48.270;16.716;2023-03-22T04:33:20;109325.25;;;18.16;66.64
48555;BME280;34336;48.270;16.716;2023-03-22T04:36:14;109325.25;;;18.16;66.44
48555;BME280;34336;48.270;16.716;2023-03-22T04:39:08;109325.25;;;18.16;66.23
48555;BME280;34336;48.270;16.716;2023-03-22T04:41:35;109325.25;;;18.16;66.43
48555;BME280;34336;48.270;16.716;2023-03-22T04:44:03;109325.25;;;18.16;66.33
48555;BME280;34336;48.270;16.716;2023-03-22T04:46:32;109325.25;;;18.16;66.28
48555;BME280;34336;48.270;16.716;2023-03-22T04:49:03;109325.25;;;18.16;66.12
48555;BME280;34336;48.270;16.716;2023-03-22T04:51:33;109325.25;;;18.16;66.49
48555;BME280;34336;48.270;16.716;2023-03-22T04:54:25;109325.25;;;18.16;66.09
48555;BME280;34336;48.270;16.716;2023-03-22T04:56:51;109325.25;;;18.16;66.35
48555;BME280;34336;48.270;16.716;2023-03-22T04:59:20;109325.25;;;18.16;66.93
48555;BME280;34336;48.270;16.716;2023-03-22T05:01:48;109325.25;;;18.16;67.57
48555;BME280;34336;48.270;16.716;2023-03-22T05:04:20;109325.25;;;18.16;66.89
48555;BME280;34336;48.270;16.716;2023-03-22T05:06:51;109325.25;;;18.16;66.30
48555;BME280;34336;48.270;16.716;2023-03-22T05:09:24;109325.25;;;18.16;66.20
48555;BME280;34336;48.270;16.716;2023-03-22T05:11:52;109325.25;;;18.16;66.04
48555;BME280;34336;48.270;16.716;2023-03-22T05:14:39;109325.25;;;18.16;65.02
48555;BME280;34336;48.270;16.716;2023-03-22T05:17:08;109325.25;;;18.16;64.76
48555;BME280;34336;48.270;16.716;2023-03-22T05:19:37;109325.25;;;18.16;64.62
48555;BME280;34336;48.270;16.716;2023-03-22T05:22:04;109325.25;;;18.16;64.91
48555;BME280;34336;48.270;16.716;2023-03-22T05:24:41;109325.25;;;18.16;65.06
48555;BME280;34336;48.270;16.716;2023-03-22T05:27:13;109325.25;;;18.16;65.41
48555;BME280;34336;48.270;16.716;2023-03-22T05:29:41;109325.25;;;18.16;65.30
48555;BME280;34336;48.270;16.716;2023-03-22T05:32:25;109325.25;;;18.16;65.44
48555;BME280;34336;48.270;16.716;2023-03-22T05:34:55;109325.25;;;18.16;65.41
48555;BME280;34336;48.270;16.716;2023-03-22T05:37:29;109325.25;;;18.16;65.17
48555;BME280;34336;48.270;16.716;2023-03-22T05:39:56;109325.25;;;18.16;65.40
48555;BME280;34336;48.270;16.716;2023-03-22T05:42:31;109325.25;;;18.16;65.28
48555;BME280;34336;48.270;16.716;2023-03-22T05:45:00;109325.25;;;18.16;65.50
48555;BME280;34336;48.270;16.716;2023-03-22T05:47:27;109325.25;;;18.16;65.35
48555;BME280;34336;48.270;16.716;2023-03-22T05:49:59;109325.25;;;18.16;65.39
48555;BME280;34336;48.270;16.716;2023-03-22T05:52:27;109325.25;;;18.16;65.60
48555;BME280;34336;48.270;16.716;2023-03-22T05:55:15;109325.25;;;18.16;65.71
48555;BME280;34336;48.270;16.716;2023-03-22T05:57:46;109325.25;;;18.16;65.71
48555;BME280;34336;48.270;16.716;2023-03-22T06:00:14;109325.25;;;18.16;66.07
48555;BME280;34336;48.270;16.716;2023-03-22T06:03:01;109325.25;;;18.16;67.10
48555;BME280;34336;48.270;16.716;2023-03-22T06:05:37;109325.25;;;18.16;66.81
48555;BME280;34336;48.270;16.716;2023-03-22T06:08:04;109325.25;;;18.16;66.64
48555;BME280;34336;48.270;16.716;2023-03-22T06:10:31;109325.25;;;18.16;67.03
48555;BME280;34336;48.270;16.716;2023-03-22T06:12:58;109325.25;;;18.16;67.09
48555;BME280;34336;48.270;16.716;2023-03-22T06:15:28;109325.25;;;18.16;66.79
48555;BME280;34336;48.270;16.716;2023-03-22T06:18:06;109325.25;;;18.16;66.17
48555;BME280;34336;48.270;16.716;2023-03-22T06:20:37;109325.25;;;18.16;66.45
48555;BME280;34336;48.270;16.716;2023-03-22T06:23:11;109325.25;;;18.16;66.06
48555;BME280;34336;48.270;16.716;2023-03-22T06:25:39;109325.25;;;18.16;66.26
48555;BME280;34336;48.270;16.716;2023-03-22T06:28:06;109325.25;;;18.16;65.98
48555;BME280;34336;48.270;16.716;2023-03-22T06:30:35;109325.25;;;18.16;65.77
48555;BME280;34336;48.270;16.716;2023-03-22T06:33:26;109325.25;;;18.16;65.69
48555;BME280;34336;48.270;16.716;2023-03-22T06:35:58;109325.25;;;18.16;65.27
48555;BME280;34336;48.270;16.716;2023-03-22T06:38:58;109325.25;;;18.16;63.77
48555;BME280;34336;48.270;16.716;2023-03-22T06:41:26;109325.25;;;18.16;64.96
48555;BME280;34336;48.270;16.716;2023-03-22T06:43:53;109325.25;;;18.16;63.03
48555;BME280;34336;48.270;16.716;2023-03-22T06:46:38;109325.25;;;18.16;64.05
48555;BME280;34336;48.270;16.716;2023-03-22T06:49:13;109325.25;;;18.16;63.13
48555;BME280;34336;48.270;16.716;2023-03-22T06:51:40;109325.25;;;18.16;62.30
48555;BME280;34336;48.270;16.716;2023-03-22T06:54:06;109325.25;;;18.16;61.89
48555;BME280;34336;48.270;16.716;2023-03-22T06:56:33;109325.25;;;18.16;61.42
48555;BME280;34336;48.270;16.716;2023-03-22T06:59:00;109325.25;;;18.16;60.32
48555;BME280;34336;48.270;16.716;2023-03-22T07:01:27;109325.25;;;18.16;61.12
48555;BME280;34336;48.270;16.716;2023-03-22T07:03:54;109325.25;;;18.16;60.05
48555;BME280;34336;48.270;16.716;2023-03-22T07:06:21;109325.25;;;18.16;60.04
48555;BME280;34336;48.270;16.716;2023-03-22T07:08:49;109325.25;;;18.16;59.55
48555;BME280;34336;48.270;16.716;2023-03-22T07:11:21;109325.25;;;18.16;57.33
48555;BME280;34336;48.270;16.716;2023-03-22T07:13:55;109325.25;;;18.16;56.92
48555;BME280;34336;48.270;16.716;2023-03-22T07:16:23;109325.25;;;18.16;54.25
48555;BME280;34336;48.270;16.716;2023-03-22T07:18:53;109325.25;;;18.16;50.35
48555;BME280;34336;48.270;16.716;2023-03-22T07:21:21;109325.25;;;18.16;47.78
48555;BME280;34336;48.270;16.716;2023-03-22T07:23:53;109325.25;;;18.16;42.75
48555;BME280;34336;48.270;16.716;2023-03-22T07:26:23;109325.25;;;18.16;43.14
48555;BME280;34336;48.270;16.716;2023-03-22T07:28:54;109325.25;;;18.16;42.69
48555;BME280;34336;48.270;16.716;2023-03-22T07:31:25;109325.25;;;18.16;41.40
48555;BME280;34336;48.270;16.716;2023-03-22T07:34:00;109325.25;;;18.16;41.20
48555;BME280;34336;48.270;16.716;2023-03-22T07:36:30;109325.25;;;18.16;39.42
48555;BME280;34336;48.270;16.716;2023-03-22T07:38:57;109325.25;;;18.16;39.55
48555;BME280;34336;48.270;16.716;2023-03-22T07:41:31;109325.25;;;18.16;40.27
48555;BME280;34336;48.270;16.716;2023-03-22T07:44:33;109325.25;;;18.16;41.63
48555;BME280;34336;48.270;16.716;2023-03-22T07:47:19;109325.25;;;18.16;42.80
48555;BME280;34336;48.270;16.716;2023-03-22T07:50:25;109325.25;;;18.16;41.93
48555;BME280;34336;48.270;16.716;2023-03-22T07:52:54;109325.25;;;18.16;43.12
48555;BME280;34336;48.270;16.716;2023-03-22T07:55:21;109325.25;;;18.16;42.88
48555;BME280;34336;48.270;16.716;2023-03-22T07:57:47;109325.25;;;18.16;42.84
48555;BME280;34336;48.270;16.716;2023-03-22T08:00:14;109325.25;;;18.16;42.45
48555;BME280;34336;48.270;16.716;2023-03-22T08:02:42;109325.25;;;18.16;43.73
48555;BME280;34336;48.270;16.716;2023-03-22T08:05:23;109325.25;;;18.16;42.40
48555;BME280;34336;48.270;16.716;2023-03-22T08:07:57;109325.25;;;18.16;41.35
48555;BME280;34336;48.270;16.716;2023-03-22T08:10:25;109325.25;;;18.16;43.99
48555;BME280;34336;48.270;16.716;2023-03-22T08:12:52;109325.25;;;18.16;43.41
48555;BME280;34336;48.270;16.716;2023-03-22T08:15:22;109325.25;;;18.16;43.20
48555;BME280;34336;48.270;16.716;2023-03-22T08:17:49;109325.25;;;18.16;41.61
48555;BME280;34336;48.270;16.716;2023-03-22T08:20:28;109325.25;;;18.16;41.96
48555;BME280;34336;48.270;16.716;2023-03-22T08:22:59;109325.25;;;18.16;40.61
48555;BME280;34336;48.270;16.716;2023-03-22T08:25:49;109325.25;;;18.16;41.63
48555;BME280;34336;48.270;16.716;2023-03-22T08:28:16;109325.25;;;18.16;42.08
48555;BME280;34336;48.270;16.716;2023-03-22T08:30:43;109325.25;;;18.16;40.66
48555;BME280;34336;48.270;16.716;2023-03-22T08:33:10;109325.25;;;18.16;42.04
48555;BME280;34336;48.270;16.716;2023-03-22T08:35:37;109325.25;;;18.16;41.83
48555;BME280;34336;48.270;16.716;2023-03-22T08:38:04;109325.25;;;18.16;41.66
48555;BME280;34336;48.270;16.716;2023-03-22T08:40:40;109325.25;;;18.16;42.40
48555;BME280;34336;48.270;16.716;2023-03-22T08:43:06;109325.25;;;18.16;41.89
48555;BME280;34336;48.270;16.716;2023-03-22T08:45:34;109325.25;;;18.16;41.62
48555;BME280;34336;48.270;16.716;2023-03-22T08:48:09;109325.25;;;18.16;41.58
48555;BME280;34336;48.270;16.716;2023-03-22T08:50:56;109325.25;;;18.16;41.36
48555;BME280;34336;48.270;16.716;2023-03-22T08:53:32;109325.25;;;18.16;41.61
48555;BME280;34336;48.270;16.716;2023-03-22T08:56:31;109325.25;;;18.16;42.06
48555;BME280;34336;48.270;16.716;2023-03-22T08:59:16;109325.25;;;18.16;42.52
48555;BME280;34336;48.270;16.716;2023-03-22T09:01:56;109325.25;;;18.16;39.91
48555;BME280;34336;48.270;16.716;2023-03-22T09:04:22;109325.25;;;18.16;40.61
48555;BME280;34336;48.270;16.716;2023-03-22T09:06:49;109325.25;;;18.16;40.74
48555;BME280;34336;48.270;16.716;2023-03-22T09:09:16;109325.25;;;18.16;41.46
48555;BME280;34336;48.270;16.716;2023-03-22T09:11:46;109325.25;;;18.16;40.64
48555;BME280;34336;48.270;16.716;2023-03-22T09:14:12;109325.25;;;18.16;40.39
48555;BME280;34336;48.270;16.716;2023-03-22T09:16:39;109325.25;;;18.16;39.42
48555;BME280;34336;48.270;16.716;2023-03-22T09:19:06;109325.25;;;18.16;39.70
48555;BME280;34336;48.270;16.716;2023-03-22T09:21:33;109325.25;;;18.16;39.11
48555;BME280;34336;48.270;16.716;2023-03-22T09:24:08;109325.25;;;18.16;40.96
48555;BME280;34336;48.270;16.716;2023-03-22T09:26:39;109325.25;;;18.16;39.79
48555;BME280;34336;48.270;16.716;2023-03-22T09:29:05;109325.25;;;18.16;38.15
48555;BME280;34336;48.270;16.716;2023-03-22T09:31:32;109325.25;;;18.16;41.13
48555;BME280;34336;48.270;16.716;2023-03-22T09:34:09;109325.25;;;18.16;40.05
48555;BME280;34336;48.270;16.716;2023-03-22T09:36:35;109325.25;;;18.16;41.33
48555;BME280;34336;48.270;16.716;2023-03-22T09:39:02;109325.25;;;18.16;40.26
48555;BME280;34336;48.270;16.716;2023-03-22T09:41:55;109325.25;;;18.16;40.72
48555;BME280;34336;48.270;16.716;2023-03-22T09:44:22;109325.25;;;18.16;39.55
48555;BME280;34336;48.270;16.716;2023-03-22T09:46:51;109325.25;;;18.16;39.66
48555;BME280;34336;48.270;16.716;2023-03-22T09:49:19;109325.25;;;18.16;40.09
48555;BME280;34336;48.270;16.716;2023-03-22T09:51:49;109325.25;;;18.16;40.34
48555;BME280;34336;48.270;16.716;2023-03-22T09:54:16;109325.25;;;18.16;39.10
48555;BME280;34336;48.270;16.716;2023-03-22T09:56:53;109325.25;;;18.16;38.98
48555;BME280;34336;48.270;16.716;2023-03-22T09:59:24;109325.25;;;18.16;41.03
48555;BME280;34336;48.270;16.716;2023-03-22T10:15:04;109325.25;;;18.16;40.30
48555;BME280;34336;48.270;16.716;2023-03-22T10:17:31;109325.25;;;18.16;40.64
48555;BME280;34336;48.270;16.716;2023-03-22T10:22:32;109325.25;;;18.16;41.77
48555;BME280;34336;48.270;16.716;2023-03-22T10:24:59;109325.25;;;18.16;40.37
48555;BME280;34336;48.270;16.716;2023-03-22T10:27:28;109325.25;;;18.16;41.05
48555;BME280;34336;48.270;16.716;2023-03-22T10:29:58;109325.25;;;18.16;42.06
48555;BME280;34336;48.270;16.716;2023-03-22T10:32:29;109325.25;;;18.16;42.26
48555;BME280;34336;48.270;16.716;2023-03-22T10:34:57;109325.25;;;18.16;40.98
48555;BME280;34336;48.270;16.716;2023-03-22T10:37:25;109325.25;;;18.16;39.95
48555;BME280;34336;48.270;16.716;2023-03-22T10:39:57;109325.25;;;18.16;39.77
48555;BME280;34336;48.270;16.716;2023-03-22T10:42:26;109325.25;;;18.16;38.40
48555;BME280;34336;48.270;16.716;2023-03-22T10:47:31;109325.25;;;18.16;38.35
48555;BME280;34336;48.270;16.716;2023-03-22T10:49:59;109325.25;;;18.16;39.06
48555;BME280;34336;48.270;16.716;2023-03-22T10:54:55;109325.25;;;18.16;37.78
48555;BME280;34336;48.270;16.716;2023-03-22T10:57:27;109325.25;;;18.16;38.86
48555;BME280;34336;48.270;16.716;2023-03-22T10:59:54;109325.25;;;18.16;38.25
48555;BME280;34336;48.270;16.716;2023-03-22T11:02:22;109325.25;;;18.16;38.09
48555;BME280;34336;48.270;16.716;2023-03-22T11:04:51;109325.25;;;18.16;37.91
48555;BME280;34336;48.270;16.716;2023-03-22T11:09:57;109325.25;;;18.16;38.15
48555;BME280;34336;48.270;16.716;2023-03-22T11:12:23;109325.25;;;18.16;37.76
48555;BME280;34336;48.270;16.716;2023-03-22T11:14:50;109325.25;;;18.16;37.09
48555;BME280;34336;48.270;16.716;2023-03-22T11:17:18;109325.25;;;18.16;37.54
48555;BME280;34336;48.270;16.716;2023-03-22T11:24:50;109325.25;;;18.16;38.68
48555;BME280;34336;48.270;16.716;2023-03-22T11:27:27;109325.25;;;18.16;38.34
48555;BME280;34336;48.270;16.716;2023-03-22T11:29:58;109325.25;;;18.16;37.98
48555;BME280;34336;48.270;16.716;2023-03-22T11:32:29;109325.25;;;18.16;38.63
48555;BME280;34336;48.270;16.716;2023-03-22T11:35:16;109325.25;;;18.16;38.69
48555;BME280;34336;48.270;16.716;2023-03-22T11:37:48;109325.25;;;18.16;38.15
48555;BME280;34336;48.270;16.716;2023-03-22T11:40:16;109325.25;;;18.16;38.33
48555;BME280;34336;48.270;16.716;2023-03-22T11:42:43;109325.25;;;18.16;38.04
48555;BME280;34336;48.270;16.716;2023-03-22T11:45:27;109325.25;;;18.16;38.92
48555;BME280;34336;48.270;16.716;2023-03-22T11:48:00;109325.25;;;18.16;38.12
48555;BME280;34336;48.270;16.716;2023-03-22T11:50:28;109325.25;;;18.16;36.92
48555;BME280;34336;48.270;16.716;2023-03-22T11:52:56;109325.25;;;18.16;37.00
48555;BME280;34336;48.270;16.716;2023-03-22T11:55:23;109325.25;;;18.16;36.94
48555;BME280;34336;48.270;16.716;2023-03-22T11:57:50;109325.25;;;18.16;35.99
48555;BME280;34336;48.270;16.716;2023-03-22T12:00:22;109325.25;;;18.16;36.44
48555;BME280;34336;48.270;16.716;2023-03-22T12:03:05;109325.25;;;18.16;36.88
48555;BME280;34336;48.270;16.716;2023-03-22T12:05:36;109325.25;;;18.16;37.04
48555;BME280;34336;48.270;16.716;2023-03-22T12:08:08;109325.25;;;18.16;37.76
48555;BME280;34336;48.270;16.716;2023-03-22T12:10:39;109325.25;;;18.16;36.50
48555;BME280;34336;48.270;16.716;2023-03-22T12:16:06;109325.25;;;18.16;38.01
48555;BME280;34336;48.270;16.716;2023-03-22T12:18:37;109325.25;;;18.16;36.96
48555;BME280;34336;48.270;16.716;2023-03-22T12:21:07;109325.25;;;18.16;37.09
48555;BME280;34336;48.270;16.716;2023-03-22T12:23:34;109325.25;;;18.16;36.72
48555;BME280;34336;48.270;16.716;2023-03-22T12:29:28;109325.25;;;18.16;36.16
48555;BME280;34336;48.270;16.716;2023-03-22T12:31:28;109325.25;;;18.16;36.52
48555;BME280;34336;48.270;16.716;2023-03-22T12:33:58;109325.25;;;18.16;36.52
48555;BME280;34336;48.270;16.716;2023-03-22T12:36:28;109325.25;;;18.16;36.67
48555;BME280;34336;48.270;16.716;2023-03-22T12:38:58;109325.25;;;18.16;35.53
48555;BME280;34336;48.270;16.716;2023-03-22T12:41:28;109325.25;;;18.16;36.31
48555;BME280;34336;48.270;16.716;2023-03-22T12:43:58;109325.25;;;18.16;36.23
48555;BME280;34336;48.270;16.716;2023-03-22T12:46:34;109325.25;;;18.16;36.83
48555;BME280;34336;48.270;16.716;2023-03-22T12:49:02;109325.25;;;18.16;36.95
48555;BME280;34336;48.270;16.716;2023-03-22T12:51:31;109325.25;;;18.16;37.41
48555;BME280;34336;48.270;16.716;2023-03-22T12:53:58;109325.25;;;18.16;37.80
48555;BME280;34336;48.270;16.716;2023-03-22T12:56:27;109325.25;;;18.16;37.19
48555;BME280;34336;48.270;16.716;2023-03-22T12:58:58;109325.25;;;18.16;37.99
48555;BME280;34336;48.270;16.716;2023-03-22T13:01:28;109325.25;;;18.16;36.89
48555;BME280;34336;48.270;16.716;2023-03-22T13:03:56;109325.25;;;18.16;36.82
48555;BME280;34336;48.270;16.716;2023-03-22T13:11:29;109325.25;;;18.16;38.13
48555;BME280;34336;48.270;16.716;2023-03-22T13:13:56;109325.25;;;18.16;36.98
48555;BME280;34336;48.270;16.716;2023-03-22T13:16:24;109325.25;;;18.16;38.63
48555;BME280;34336;48.270;16.716;2023-03-22T13:19:16;109325.25;;;18.16;38.15
48555;BME280;34336;48.270;16.716;2023-03-22T13:21:42;109325.25;;;18.16;38.56
48555;BME280;34336;48.270;16.716;2023-03-22T13:32:28;109325.25;;;18.16;38.79
48555;BME280;34336;48.270;16.716;2023-03-22T13:34:56;109325.25;;;18.16;38.46
48555;BME280;34336;48.270;16.716;2023-03-22T13:37:33;109325.25;;;18.16;38.12
48555;BME280;34336;48.270;16.716;2023-03-22T13:42:52;109325.25;;;18.16;37.44
48555;BME280;34336;48.270;16.716;2023-03-22T13:45:29;109325.25;;;18.16;37.24
48555;BME280;34336;48.270;16.716;2023-03-22T13:48:05;109325.25;;;18.16;37.49
48555;BME280;34336;48.270;16.716;2023-03-22T13:50:34;109325.25;;;18.16;37.35
48555;BME280;34336;48.270;16.716;2023-03-22T13:53:05;109325.25;;;18.16;37.45
48555;BME280;34336;48.270;16.716;2023-03-22T13:55:35;109325.25;;;18.16;36.94
48555;BME280;34336;48.270;16.716;2023-03-22T13:58:03;109325.25;;;18.16;38.07
48555;BME280;34336;48.270;16.716;2023-03-22T14:02:59;109325.25;;;18.16;36.95
48555;BME280;34336;48.270;16.716;2023-03-22T14:05:27;109325.25;;;18.16;35.91
48555;BME280;34336;48.270;16.716;2023-03-22T14:07:57;109325.25;;;18.16;36.18
48555;BME280;34336;48.270;16.716;2023-03-22T14:15:34;109325.25;;;18.16;36.46
48555;BME280;34336;48.270;16.716;2023-03-22T14:18:10;109325.25;;;18.16;36.94
48555;BME280;34336;48.270;16.716;2023-03-22T14:20:40;109325.25;;;18.16;36.59
48555;BME280;34336;48.270;16.716;2023-03-22T14:23:13;109325.25;;;18.16;37.03
48555;BME280;34336;48.270;16.716;2023-03-22T14:25:40;109325.25;;;18.16;38.49
48555;BME280;34336;48.270;16.716;2023-03-22T14:28:06;109325.25;;;18.16;38.35
48555;BME280;34336;48.270;16.716;2023-03-22T14:32:59;109325.25;;;18.16;38.94
48555;BME280;34336;48.270;16.716;2023-03-22T14:35:38;109325.25;;;18.16;38.84